This is the latest recevied weather packets stored in our database for station/object JF1AJE-13. If no packets are shown the sender has not sent any weather packets the latest 10 day(s).
| Time | Temp. | Humidity | Pressure | Rain* | Wind** | Luminosity | Snow |
|---|---|---|---|---|---|---|---|
| 1777872356 | 31.11° C | 30% | 988.8 hPa | 0 mm | - | - | - |
| 1777871153 | 31.11° C | 31% | 988.8 hPa | 0 mm | - | - | - |
| 1777869952 | 31.11° C | 32% | 988.9 hPa | 0 mm | - | - | - |
| 1777868752 | 29.44° C | 35% | 989.3 hPa | 0 mm | - | - | - |
| 1777867552 | 28.89° C | 37% | 989.5 hPa | 0 mm | - | - | - |
| 1777866351 | 29.44° C | 36% | 989.8 hPa | 0 mm | - | - | - |
| 1777865152 | 28.33° C | 41% | 990 hPa | 0 mm | - | - | - |
| 1777863952 | 28.33° C | 44% | 990.5 hPa | 0 mm | - | - | - |
| 1777862752 | 28.89° C | 43% | 990.5 hPa | 0 mm | - | - | - |
| 1777861552 | 28.33° C | 45% | 990.9 hPa | 0 mm | - | - | - |
| 1777860353 | 27.22° C | 50% | 991 hPa | 0 mm | - | - | - |
| 1777859153 | 26.11° C | 54% | 991.5 hPa | 0 mm | - | - | - |
| 1777857952 | 25° C | 56% | 991.9 hPa | 0 mm | - | - | - |
| 1777856751 | 23.89° C | 58% | 992.1 hPa | 0 mm | - | - | - |
| 1777855552 | 23.33° C | 61% | 992.4 hPa | 0 mm | - | - | - |
| 1777854352 | 22.78° C | 62% | 992.6 hPa | 0 mm | - | - | - |
| 1777853153 | 21.67° C | 66% | 992.6 hPa | 0 mm | - | - | - |
| 1777851952 | 20.56° C | 69% | 992.6 hPa | 0 mm | - | - | - |
| 1777850751 | 19.44° C | 74% | 992.7 hPa | 0 mm | - | - | - |
| 1777849553 | 18.89° C | 78% | 992.5 hPa | 0 mm | - | - | - |
| 1777848357 | 18.33° C | 83% | 992.6 hPa | 0 mm | - | - | - |
| 1777847151 | 17.22° C | 86% | 992.4 hPa | 0 mm | - | - | - |
| 1777845953 | 16.67° C | 88% | 992.5 hPa | 0 mm | - | - | - |
| 1777844752 | 16.67° C | 89% | 992.3 hPa | 0 mm | - | - | - |
| 1777843551 | 16.67° C | 89% | 991.6 hPa | 0.25 mm | - | - | - |
* Rain latest hour (hover to see other rain measurements)
** Current wind speed in m/s (hover to see current wind gust speed)